FYBJ weather

Bitterwasser Lodge & Flying Club Airfield
Bitterwasser, Hardap Region, Namibia

Public forecast

Using degrees Celsius for public forecast. Weather courtesy of forecast.io.

Closest aviation weather report (METAR) to Bitterwasser Lodge & Flying Club Airfield

Report is more than 6 hours old.

Closest report is Mariental Airport, 44.0 nm (81.5 km) S. Retrieved 2020/01/30 00:00 UTC (6 months ago):

FYML 300000Z AUTO 21002KT //// // ////// 27/M04 Q1019

Closest aviation forecast (TAF) to Bitterwasser Lodge & Flying Club Airfield

Closest forecast is Hosea Kutako International Airport, 88.5 nm (164.0 km) NNW. Retrieved 2020/08/06 12:00 UTC (4 hours ago):

TAF FYWH 061000Z 0612/0712 15005KT CAVOK